Time;durP1;ratioP1;P1;durP2;ratioP2;P2;SDS_P1;SDS_P2;PMS_P1;PMS_P2;Temp;Humidity;BMP_temperature;BMP_pressure;BME280_temperature;BME280_humidity;BME280_pressure;Samples;Min_cycle;Max_cycle;Signal;HPM_P1;HPM_P2
2023/03/28 00:00:13;;;;;;;0.60;0.60;;;;;;;-0.11;100.00;97889.47;5138209;28;20452;-68
2023/03/28 00:02:39;;;;;;;2.50;1.00;;;;;;;-0.14;100.00;97873.94;5138622;28;20142;-68
2023/03/28 00:05:06;;;;;;;0.88;0.70;;;;;;;-0.20;100.00;97864.50;5138176;27;20362;-69
2023/03/28 00:07:32;;;;;;;1.38;1.30;;;;;;;-0.16;100.00;97870.81;5138617;28;20047;-66
2023/03/28 00:09:58;;;;;;;0.60;0.60;;;;;;;-0.08;100.00;97863.78;5138431;28;20373;-66
2023/03/28 00:12:24;;;;;;;1.17;0.95;;;;;;;-0.01;100.00;97859.44;5138063;28;20401;-70
2023/03/28 00:14:51;;;;;;;0.68;0.63;;;;;;;-0.41;100.00;97880.59;5138058;28;20111;-69
2023/03/28 00:17:17;;;;;;;0.80;0.80;;;;;;;-0.26;100.00;97861.19;5138211;28;20098;-71
2023/03/28 00:19:45;;;;;;;1.42;1.15;;;;;;;-0.37;100.00;97859.19;5138344;28;20137;-69
2023/03/28 00:22:11;;;;;;;1.08;0.70;;;;;;;-0.14;100.00;97852.41;5137955;28;20138;-70
2023/03/28 00:24:39;;;;;;;0.80;0.80;;;;;;;-0.23;100.00;97859.75;5138323;28;20191;-69
2023/03/28 00:27:06;;;;;;;1.00;0.95;;;;;;;-0.20;100.00;97852.91;5137875;28;20482;-67
2023/03/28 00:29:33;;;;;;;0.70;0.70;;;;;;;-0.26;100.00;97841.56;5138407;28;20062;-71
2023/03/28 00:31:59;;;;;;;2.28;1.55;;;;;;;-0.15;100.00;97823.88;5138259;28;20047;-73
2023/03/28 00:34:26;;;;;;;0.65;0.65;;;;;;;-0.27;100.00;97842.66;5138675;27;20103;-72
2023/03/28 00:36:52;;;;;;;0.80;0.80;;;;;;;-0.25;100.00;97845.81;5140927;28;20425;-66
2023/03/28 00:39:19;;;;;;;0.80;0.80;;;;;;;-0.24;100.00;97850.09;5139496;28;20146;-66
2023/03/28 00:41:45;;;;;;;1.55;0.90;;;;;;;-0.31;100.00;97850.59;5137722;28;20062;-71
2023/03/28 00:44:40;;;;;;;1.00;0.98;;;;;;;-0.52;100.00;97855.16;5137711;28;20395;-68
2023/03/28 00:47:16;;;;;;;0.80;0.80;;;;;;;-0.44;100.00;97842.75;5137984;28;20103;-67
2023/03/28 00:49:45;;;;;;;1.05;0.88;;;;;;;-0.36;100.00;97844.63;5137461;28;20047;-66
2023/03/28 00:52:14;;;;;;;1.33;0.90;;;;;;;-0.23;100.00;97824.75;5137956;28;20054;-70
2023/03/28 00:54:41;;;;;;;1.05;0.95;;;;;;;-0.30;100.00;97837.91;5137701;28;20047;-68
2023/03/28 00:57:08;;;;;;;1.15;0.70;;;;;;;-0.43;100.00;97828.16;5137843;28;20047;-67
2023/03/28 00:59:36;;;;;;;0.82;0.80;;;;;;;-0.59;100.00;97831.44;5137496;27;20085;-66
2023/03/28 01:02:02;;;;;;;0.70;0.70;;;;;;;-0.37;100.00;97829.56;5137451;28;20313;-72
2023/03/28 01:04:35;;;;;;;0.65;0.65;;;;;;;-0.33;100.00;97822.44;5137406;27;20161;-68
2023/03/28 01:07:02;;;;;;;0.95;0.95;;;;;;;-0.37;100.00;97808.81;5137458;28;20154;-70
2023/03/28 01:09:28;;;;;;;0.88;0.88;;;;;;;-0.34;100.00;97807.38;5137676;28;20173;-68
2023/03/28 01:11:57;;;;;;;1.10;0.90;;;;;;;-0.31;100.00;97814.78;5137419;28;20133;-69
2023/03/28 01:14:27;;;;;;;2.25;0.80;;;;;;;-0.34;100.00;97816.22;5137809;28;20134;-69
2023/03/28 01:16:56;;;;;;;1.02;0.93;;;;;;;-0.40;100.00;97824.81;5137208;28;20111;-69
2023/03/28 01:19:37;;;;;;;0.60;0.60;;;;;;;-0.37;100.00;97834.94;5137654;28;20142;-67
2023/03/28 01:22:39;;;;;;;0.80;0.80;;;;;;;-0.37;100.00;97813.41;5137268;28;20066;-71
2023/03/28 01:25:43;;;;;;;1.02;1.02;;;;;;;-0.39;100.00;97813.75;5137375;28;20388;-72
2023/03/28 01:28:22;;;;;;;1.53;1.20;;;;;;;-0.34;100.00;97818.94;5137105;28;20139;-71
2023/03/28 01:31:08;;;;;;;1.13;0.90;;;;;;;-0.48;100.00;97824.56;5136902;28;20098;-66
2023/03/28 01:34:09;;;;;;;1.95;0.98;;;;;;;-0.55;100.00;97829.66;5137208;28;20385;-71
2023/03/28 01:36:59;;;;;;;1.27;0.93;;;;;;;-0.40;100.00;97808.66;5137268;27;20442;-69
2023/03/28 01:39:38;;;;;;;1.60;1.08;;;;;;;-0.41;100.00;97824.03;5136850;28;20043;-72
2023/03/28 01:42:12;;;;;;;0.80;0.80;;;;;;;-0.40;100.00;97816.75;5137259;28;20142;-72
2023/03/28 01:44:46;;;;;;;0.85;0.85;;;;;;;-0.52;100.00;97817.47;5136868;28;20484;-69
2023/03/28 01:47:17;;;;;;;0.70;0.70;;;;;;;-0.32;100.00;97814.00;5136967;28;20062;-70
2023/03/28 01:49:50;;;;;;;1.48;1.02;;;;;;;-0.52;100.00;97810.16;5137169;28;20164;-71
2023/03/28 01:52:22;;;;;;;0.80;0.80;;;;;;;-0.51;100.00;97813.63;5136851;28;20078;-69
2023/03/28 01:54:53;;;;;;;1.33;0.77;;;;;;;-0.48;100.00;97813.00;5137090;28;20134;-66
2023/03/28 01:57:25;;;;;;;1.10;1.00;;;;;;;-0.28;100.00;97816.84;5136720;28;20138;-66
2023/03/28 01:59:59;;;;;;;0.90;0.90;;;;;;;-0.41;100.00;97815.19;5137117;28;20207;-67
2023/03/28 02:02:29;;;;;;;;;;;;;;;-0.43;100.00;97809.31;5136941;28;20055;-71
2023/03/28 02:04:57;;;;;;;0.95;0.90;;;;;;;-0.48;100.00;97802.22;5136482;27;20352;-67
2023/03/28 02:07:26;;;;;;;0.50;0.50;;;;;;;-0.38;100.00;97799.16;5136831;28;20192;-71
2023/03/28 02:09:53;;;;;;;0.90;0.90;;;;;;;-0.40;100.00;97798.72;5137204;27;20149;-69
2023/03/28 02:12:25;;;;;;;0.70;0.70;;;;;;;-0.50;100.00;97804.44;5140332;28;20138;-67
2023/03/28 02:14:53;;;;;;;0.90;0.70;;;;;;;-0.54;100.00;97790.84;5140212;28;20377;-69
2023/03/28 02:17:21;;;;;;;0.70;0.70;;;;;;;-0.60;100.00;97802.94;5140660;28;20106;-69
2023/03/28 02:19:53;;;;;;;0.93;0.88;;;;;;;-0.76;100.00;97786.53;5139921;28;20061;-69
2023/03/28 02:22:25;;;;;;;0.70;0.70;;;;;;;-0.73;100.00;97772.44;5140257;28;20138;-68
2023/03/28 02:24:52;;;;;;;0.70;0.70;;;;;;;-0.70;100.00;97776.38;5139860;28;20412;-67
2023/03/28 02:27:19;;;;;;;0.70;0.70;;;;;;;-0.69;100.00;97747.56;5139703;28;20376;-68
2023/03/28 02:29:48;;;;;;;0.80;0.80;;;;;;;-0.79;100.00;97754.13;5140095;28;20137;-68
2023/03/28 02:32:14;;;;;;;0.80;0.80;;;;;;;-0.75;100.00;97746.97;5140202;28;20051;-69
2023/03/28 02:34:41;;;;;;;0.93;0.90;;;;;;;-0.63;100.00;97728.22;5139965;27;20134;-67
2023/03/28 02:37:15;;;;;;;1.27;0.63;;;;;;;-0.84;100.00;97748.91;5139632;28;20336;-66
2023/03/28 02:39:51;;;;;;;0.57;0.57;;;;;;;-0.78;100.00;97747.59;5139958;28;20047;-65
2023/03/28 02:42:49;;;;;;;1.20;0.70;;;;;;;-0.88;100.00;97742.59;5139600;28;20101;-65
2023/03/28 02:45:30;;;;;;;3.35;0.90;;;;;;;-0.77;100.00;97736.53;5104837;28;20337;-68
2023/03/28 02:48:08;;;;;;;0.70;0.70;;;;;;;-0.75;100.00;97730.81;5139796;28;20312;-68
2023/03/28 02:50:39;;;;;;;0.73;0.70;;;;;;;-1.10;100.00;97744.44;5139591;28;20138;-68
2023/03/28 02:53:13;;;;;;;0.65;0.65;;;;;;;-0.96;100.00;97745.00;5139942;28;20051;-69
2023/03/28 02:55:48;;;;;;;0.85;0.82;;;;;;;-0.96;100.00;97736.94;5139683;28;20141;-67
2023/03/28 02:58:20;;;;;;;1.67;0.80;;;;;;;-1.13;100.00;97731.63;5139844;28;20051;-66
2023/03/28 03:00:47;;;;;;;0.55;0.55;;;;;;;-0.83;100.00;97723.59;5139233;28;20054;-67
2023/03/28 03:03:15;;;;;;;1.77;0.70;;;;;;;-0.85;100.00;97728.50;5139125;28;20054;-67
2023/03/28 03:05:41;;;;;;;0.70;0.70;;;;;;;-0.91;100.00;97721.72;5139416;27;20114;-66
2023/03/28 03:08:08;;;;;;;0.80;0.80;;;;;;;-0.94;100.00;97717.78;5139387;28;20055;-68
2023/03/28 03:10:34;;;;;;;0.90;0.90;;;;;;;-0.98;100.00;97725.69;5139760;28;20062;-67
2023/03/28 03:13:00;;;;;;;0.90;0.90;;;;;;;-0.95;100.00;97724.28;5138959;28;20058;-67
2023/03/28 03:15:29;;;;;;;0.80;0.80;;;;;;;-0.99;100.00;97717.97;5139482;28;20047;-67
2023/03/28 03:17:55;;;;;;;1.55;1.15;;;;;;;-0.82;100.00;97715.19;5139153;28;20084;-65
2023/03/28 03:20:22;;;;;;;0.60;0.60;;;;;;;-0.96;100.00;97720.78;5139254;28;20047;-68
2023/03/28 03:22:47;;;;;;;0.70;0.70;;;;;;;-1.05;100.00;97722.72;5137427;27;20054;-65
2023/03/28 03:25:14;;;;;;;1.17;1.05;;;;;;;-1.02;100.00;97710.53;5139264;28;20043;-65
2023/03/28 03:27:41;;;;;;;1.00;1.00;;;;;;;-1.06;100.00;97704.25;5138894;28;20146;-68
2023/03/28 03:30:08;;;;;;;1.38;0.70;;;;;;;-1.05;100.00;97709.28;5139242;28;20134;-68
2023/03/28 03:32:35;;;;;;;1.55;0.80;;;;;;;-1.15;100.00;97715.03;5138770;28;20432;-69
2023/03/28 03:35:01;;;;;;;0.88;0.82;;;;;;;-1.06;100.00;97712.31;5138872;27;20062;-67
2023/03/28 03:37:27;;;;;;;1.38;0.90;;;;;;;-1.07;100.00;97699.97;5138712;28;20051;-67
2023/03/28 03:39:53;;;;;;;2.15;1.05;;;;;;;-1.06;100.00;97694.28;5138782;28;20134;-67
2023/03/28 03:42:19;;;;;;;1.08;1.00;;;;;;;-1.08;100.00;97691.09;5138672;28;20190;-65
2023/03/28 03:44:45;;;;;;;1.55;0.80;;;;;;;-1.04;100.00;97697.41;5138665;28;20145;-66
2023/03/28 03:47:11;;;;;;;0.68;0.68;;;;;;;-0.92;100.00;97690.56;5139009;28;20107;-67
2023/03/28 03:49:37;;;;;;;0.90;0.82;;;;;;;-1.06;100.00;97699.66;5138548;28;20047;-68
2023/03/28 03:52:03;;;;;;;0.73;0.73;;;;;;;-1.00;100.00;97697.53;5138846;28;20051;-68
2023/03/28 03:54:29;;;;;;;1.10;1.00;;;;;;;-1.06;100.00;97705.03;5138372;28;20137;-68
2023/03/28 03:56:55;;;;;;;0.80;0.80;;;;;;;-1.06;100.00;97696.97;5138882;28;20075;-67
2023/03/28 03:59:21;;;;;;;4.65;0.80;;;;;;;-1.01;100.00;97696.75;5138676;28;20328;-66
2023/03/28 04:01:47;;;;;;;1.20;1.10;;;;;;;-1.14;100.00;97697.78;5140709;28;20397;-66
2023/03/28 04:04:13;;;;;;;0.70;0.70;;;;;;;-1.15;100.00;97706.97;5139313;27;20146;-68
2023/03/28 04:06:40;;;;;;;0.85;0.80;;;;;;;-1.17;100.00;97698.41;5138468;28;20162;-69
2023/03/28 04:09:06;;;;;;;1.00;1.00;;;;;;;-1.22;100.00;97715.53;5138470;28;20138;-69
2023/03/28 04:11:32;;;;;;;2.08;1.02;;;;;;;-1.23;100.00;97705.13;5138151;28;20047;-68
2023/03/28 04:13:58;;;;;;;0.82;0.82;;;;;;;-1.00;100.00;97703.72;5138437;28;20055;-70
2023/03/28 04:16:24;;;;;;;1.55;1.10;;;;;;;-1.24;100.00;97706.19;5138045;28;20051;-68
2023/03/28 04:18:51;;;;;;;1.10;1.10;;;;;;;-1.27;100.00;97715.69;5138400;28;20062;-66
2023/03/28 04:21:21;;;;;;;1.35;1.25;;;;;;;-1.16;100.00;97708.09;5137969;28;20057;-68
2023/03/28 04:23:47;;;;;;;0.90;0.88;;;;;;;-1.10;100.00;97703.28;5138276;28;20138;-68
2023/03/28 04:26:19;;;;;;;1.77;1.05;;;;;;;-1.23;100.00;97705.13;5137836;28;20446;-69
2023/03/28 04:28:45;;;;;;;0.70;0.70;;;;;;;-1.01;100.00;97712.91;5137766;28;20294;-67
2023/03/28 04:31:11;;;;;;;0.68;0.68;;;;;;;-1.33;100.00;97710.81;5138297;28;20051;-67
2023/03/28 04:33:37;;;;;;;0.70;0.70;;;;;;;-1.17;100.00;97709.16;5137357;27;20055;-68
2023/03/28 04:36:04;;;;;;;2.35;0.88;;;;;;;-1.13;100.00;97730.81;5137963;27;20133;-69
2023/03/28 04:38:34;;;;;;;1.65;0.70;;;;;;;-1.21;100.00;97729.75;5137785;28;20051;-68
2023/03/28 04:41:02;;;;;;;0.80;0.80;;;;;;;-1.21;100.00;97737.81;5137815;28;20058;-68
2023/03/28 04:43:28;;;;;;;1.60;1.08;;;;;;;-1.20;100.00;97740.22;5137589;28;20072;-68
2023/03/28 04:45:55;;;;;;;1.10;1.00;;;;;;;-1.34;100.00;97734.22;5137895;28;20503;-67
2023/03/28 04:48:22;;;;;;;1.10;1.05;;;;;;;-1.32;100.00;97744.69;5137446;28;20099;-66
2023/03/28 04:50:48;;;;;;;1.10;1.10;;;;;;;-1.17;100.00;97735.28;5138046;28;20047;-68
2023/03/28 04:53:15;;;;;;;2.97;1.23;;;;;;;-1.21;100.00;97738.63;5137348;28;20385;-67
2023/03/28 04:55:42;;;;;;;0.82;0.80;;;;;;;-1.06;100.00;97745.38;5137772;28;20171;-66
2023/03/28 04:58:09;;;;;;;0.68;0.68;;;;;;;-1.02;100.00;97751.69;5137601;28;20086;-69
2023/03/28 05:00:38;;;;;;;1.00;1.00;;;;;;;-1.05;100.00;97751.53;5137494;28;20059;-67
2023/03/28 05:03:04;;;;;;;1.13;1.02;;;;;;;-0.98;100.00;97771.44;5137118;28;20047;-64
2023/03/28 05:05:30;;;;;;;2.80;0.95;;;;;;;-0.87;100.00;97777.22;5137214;27;20396;-64
2023/03/28 05:07:56;;;;;;;0.98;0.98;;;;;;;-0.78;100.00;97779.91;5137529;28;20053;-67
2023/03/28 05:10:22;;;;;;;5.18;1.33;;;;;;;-0.65;100.00;97791.56;5136916;28;20051;-68
2023/03/28 05:12:48;;;;;;;0.90;0.90;;;;;;;-0.46;100.00;97805.41;5137211;28;20058;-66
2023/03/28 05:15:14;;;;;;;0.63;0.63;;;;;;;-0.41;100.00;97804.41;5137026;28;20043;-69
2023/03/28 05:17:40;;;;;;;1.60;1.30;;;;;;;-0.40;100.00;97819.44;5137432;28;20133;-66
2023/03/28 05:20:09;;;;;;;4.07;0.82;;;;;;;-0.31;100.00;97836.34;5136882;28;20180;-69
2023/03/28 05:22:36;;;;;;;1.10;1.00;;;;;;;-0.43;100.00;97863.97;5137207;28;20054;-69
2023/03/28 05:25:02;;;;;;;5.45;1.20;;;;;;;-0.56;100.00;97876.53;5136848;28;20142;-69
2023/03/28 05:27:28;;;;;;;1.85;1.30;;;;;;;-0.58;100.00;97886.84;5137184;28;20138;-67
2023/03/28 05:29:54;;;;;;;2.53;1.10;;;;;;;-0.48;100.00;97908.00;5137260;28;20057;-66
2023/03/28 05:32:21;;;;;;;1.08;1.08;;;;;;;-0.73;100.00;97925.06;5136073;28;20421;-66
2023/03/28 05:34:47;;;;;;;1.45;1.15;;;;;;;-0.63;100.00;97935.47;5136666;27;20409;-62
2023/03/28 05:37:13;;;;;;;1.42;1.05;;;;;;;-0.85;100.00;97957.19;5136830;28;20043;-64
2023/03/28 05:39:39;;;;;;;1.45;1.35;;;;;;;-0.87;100.00;97944.06;5136735;28;20055;-66
2023/03/28 05:42:05;;;;;;;5.63;1.70;;;;;;;-1.01;100.00;97959.59;5136611;28;20046;-67
2023/03/28 05:44:32;;;;;;;2.92;1.25;;;;;;;-1.08;100.00;97981.59;5136742;27;20063;-67
2023/03/28 05:46:58;;;;;;;1.58;1.38;;;;;;;-0.90;100.00;97968.94;5140167;28;20480;-64
2023/03/28 05:49:24;;;;;;;2.92;1.10;;;;;;;-0.97;100.00;97972.09;5140229;28;20100;-68
2023/03/28 05:51:50;;;;;;;1.40;1.30;;;;;;;-1.01;100.00;97973.81;5141037;28;20059;-68
2023/03/28 05:54:16;;;;;;;1.20;1.10;;;;;;;-0.83;100.00;97987.28;5140681;28;20421;-65
2023/03/28 05:56:42;;;;;;;1.15;1.02;;;;;;;-0.99;100.00;97998.53;5141418;28;20076;-64
2023/03/28 05:59:08;;;;;;;4.13;1.30;;;;;;;-1.09;100.00;98008.81;5140246;28;20221;-66
2023/03/28 06:01:35;;;;;;;0.82;0.82;;;;;;;-0.94;100.00;98008.31;5140142;28;20078;-66
2023/03/28 06:04:02;;;;;;;1.55;0.93;;;;;;;-0.90;100.00;98016.53;5140306;28;20061;-65
2023/03/28 06:06:29;;;;;;;3.75;1.27;;;;;;;-0.84;100.00;98013.38;5140459;27;20051;-67
2023/03/28 06:08:55;;;;;;;0.63;0.63;;;;;;;-0.71;100.00;98011.63;5140366;28;20046;-68
2023/03/28 06:11:21;;;;;;;1.65;1.17;;;;;;;-0.71;100.00;98015.09;5139892;28;20377;-66
2023/03/28 06:13:47;;;;;;;1.40;1.10;;;;;;;-0.80;100.00;98029.69;5140242;28;20047;-66
2023/03/28 06:16:13;;;;;;;3.05;1.33;;;;;;;-0.83;100.00;98033.81;5139952;28;20141;-70
2023/03/28 06:18:39;;;;;;;5.93;1.20;;;;;;;-0.71;100.00;98054.69;5140090;28;20051;-71
2023/03/28 06:21:06;;;;;;;1.13;1.02;;;;;;;-0.69;100.00;98073.22;5139815;28;20089;-71
2023/03/28 06:23:32;;;;;;;1.45;1.02;;;;;;;-0.66;100.00;98076.06;5140132;28;20061;-72
2023/03/28 06:25:58;;;;;;;1.52;0.85;;;;;;;-0.59;100.00;98086.38;5139708;28;20146;-70
2023/03/28 06:28:24;;;;;;;2.78;1.52;;;;;;;-0.84;100.00;98109.47;5139662;28;20055;-68
2023/03/28 06:30:50;;;;;;;1.25;1.02;;;;;;;-0.76;100.00;98112.16;5139727;28;20116;-68
2023/03/28 06:33:16;;;;;;;2.05;1.05;;;;;;;-0.69;100.00;98138.63;5139691;28;20413;-68
2023/03/28 06:35:42;;;;;;;3.97;1.00;;;;;;;-0.65;100.00;98128.78;5139857;27;20396;-66
2023/03/28 06:38:08;;;;;;;3.33;0.95;;;;;;;-0.62;100.00;98138.94;5139501;28;20146;-69
2023/03/28 06:40:35;;;;;;;0.80;0.80;;;;;;;-0.62;100.00;98159.69;5139735;28;20059;-71
2023/03/28 06:43:01;;;;;;;6.10;1.20;;;;;;;-0.70;100.00;98174.69;5139316;28;20305;-74
2023/03/28 06:45:27;;;;;;;1.08;0.98;;;;;;;-0.63;100.00;98185.81;5139691;28;20085;-69
2023/03/28 06:47:53;;;;;;;1.17;1.08;;;;;;;-0.51;100.00;98188.66;5139211;28;20062;-67
2023/03/28 06:50:19;;;;;;;0.88;0.88;;;;;;;-0.47;100.00;98191.50;5139623;28;20051;-65
2023/03/28 06:52:45;;;;;;;1.17;1.08;;;;;;;-0.60;100.00;98201.34;5139296;28;20058;-70
2023/03/28 06:55:11;;;;;;;1.40;1.30;;;;;;;-0.63;100.00;98204.66;5139094;28;20047;-65
2023/03/28 06:57:37;;;;;;;0.98;0.95;;;;;;;-0.64;100.00;98208.44;5138922;27;20059;-67
2023/03/28 07:00:06;;;;;;;1.38;1.10;;;;;;;-0.56;100.00;98206.88;5139187;28;20308;-66
2023/03/28 07:02:32;;;;;;;1.00;1.00;;;;;;;-0.60;100.00;98217.47;5139340;28;20051;-66
2023/03/28 07:04:58;;;;;;;1.45;0.95;;;;;;;-0.45;100.00;98220.81;5138996;27;20134;-65
2023/03/28 07:07:23;;;;;;;0.98;0.98;;;;;;;-0.46;100.00;98220.03;5139146;28;20043;-64
2023/03/28 07:09:53;;;;;;;2.55;1.00;;;;;;;-0.19;100.00;98223.53;5139329;28;20078;-68
2023/03/28 07:12:19;;;;;;;1.80;1.15;;;;;;;-0.44;100.00;98223.19;5139620;28;20080;-63
2023/03/28 07:14:46;;;;;;;1.40;1.10;;;;;;;-0.42;100.00;98230.97;5138965;28;20055;-61
2023/03/28 07:17:12;;;;;;;1.00;1.00;;;;;;;-0.37;100.00;98236.97;5139188;28;20062;-67
2023/03/28 07:19:38;;;;;;;1.98;1.40;;;;;;;-0.49;100.00;98236.81;5138782;28;20142;-59
2023/03/28 07:22:04;;;;;;;2.13;1.20;;;;;;;-0.46;100.00;98252.34;5138881;28;20047;-62
2023/03/28 07:24:30;;;;;;;1.33;1.27;;;;;;;-0.47;100.00;98245.34;5140861;28;20082;-68
2023/03/28 07:26:56;;;;;;;1.35;1.08;;;;;;;-0.41;100.00;98246.00;5140977;28;20070;-68
2023/03/28 07:29:22;;;;;;;1.38;1.20;;;;;;;-0.43;100.00;98262.50;5138909;28;20062;-64
2023/03/28 07:31:49;;;;;;;1.27;1.17;;;;;;;-0.32;100.00;98258.38;5138550;28;20061;-64
2023/03/28 07:34:17;;;;;;;1.65;1.20;;;;;;;-0.32;100.00;98257.59;5138987;28;20091;-63
2023/03/28 07:36:43;;;;;;;3.03;1.70;;;;;;;-0.44;100.00;98257.41;5138578;28;20119;-65
2023/03/28 07:39:09;;;;;;;1.13;1.05;;;;;;;-0.50;100.00;98270.22;5138906;28;20146;-64
2023/03/28 07:41:35;;;;;;;1.58;1.20;;;;;;;-0.07;100.00;98261.38;5138444;28;20139;-69
2023/03/28 07:44:01;;;;;;;2.15;1.50;;;;;;;-0.34;100.00;98263.28;5138637;28;20043;-67
2023/03/28 07:46:27;;;;;;;0.80;0.80;;;;;;;-0.38;100.00;98240.00;5138256;28;20365;-65
2023/03/28 07:48:54;;;;;;;2.45;1.50;;;;;;;-0.56;100.00;98272.28;5138792;28;20134;-66
2023/03/28 07:51:21;;;;;;;4.70;1.05;;;;;;;-0.34;100.00;98268.66;5138101;28;20050;-66
2023/03/28 07:53:47;;;;;;;1.50;1.40;;;;;;;-0.35;100.00;98269.78;5138439;28;20115;-68
2023/03/28 07:56:13;;;;;;;1.10;1.10;;;;;;;-0.31;100.00;98261.84;5138533;28;20213;-68
2023/03/28 07:58:39;;;;;;;2.10;1.20;;;;;;;-0.19;100.00;98263.94;5138077;28;20370;-66
2023/03/28 08:01:07;;;;;;;2.03;1.17;;;;;;;-0.31;100.00;98280.72;5138412;28;20043;-65
2023/03/28 08:03:33;;;;;;;5.32;0.95;;;;;;;-0.35;100.00;98283.25;5138030;28;20093;-66
2023/03/28 08:06:05;;;;;;;2.60;1.25;;;;;;;-0.19;100.00;98296.28;5138127;27;20051;-67
2023/03/28 08:08:31;;;;;;;2.60;1.35;;;;;;;-0.15;100.00;98297.22;5137322;27;20099;-64
2023/03/28 08:10:58;;;;;;;2.17;0.90;;;;;;;-0.12;100.00;98294.69;5138232;28;20043;-67
2023/03/28 08:13:24;;;;;;;1.35;1.25;;;;;;;-0.22;100.00;98300.38;5137951;28;20156;-67
2023/03/28 08:15:51;;;;;;;2.20;1.17;;;;;;;-0.30;100.00;98296.56;5138232;28;20062;-64
2023/03/28 08:18:19;;;;;;;5.45;1.00;;;;;;;-0.40;100.00;98310.34;5138071;28;20082;-64
2023/03/28 08:20:46;;;;;;;3.13;1.30;;;;;;;-0.59;100.00;98307.91;5137696;28;20081;-66
2023/03/28 08:23:12;;;;;;;1.30;1.10;;;;;;;-0.40;100.00;98304.94;5137748;28;20147;-63
2023/03/28 08:25:38;;;;;;;1.58;1.45;;;;;;;-0.15;100.00;98314.16;5137792;28;20370;-65
2023/03/28 08:28:05;;;;;;;2.53;1.17;;;;;;;-0.31;100.00;98319.22;5137984;28;20043;-66
2023/03/28 08:30:31;;;;;;;2.95;1.50;;;;;;;-0.11;100.00;98314.34;5137710;28;20154;-67
2023/03/28 08:32:57;;;;;;;2.38;1.52;;;;;;;-0.08;100.00;98322.56;5137954;28;20404;-68
2023/03/28 08:35:23;;;;;;;2.88;1.40;;;;;;;-0.32;100.00;98327.63;5137253;27;20089;-63
2023/03/28 08:37:50;;;;;;;1.60;1.35;;;;;;;-0.11;100.00;98327.81;5138025;28;20103;-67
2023/03/28 08:40:19;;;;;;;1.60;1.13;;;;;;;-0.12;100.00;98318.94;5137652;28;20063;-63
2023/03/28 08:43:02;;;;;;;1.90;1.70;;;;;;;-0.25;100.00;98325.25;5137836;28;20081;-66
2023/03/28 08:45:41;;;;;;;2.47;2.10;;;;;;;-0.42;100.00;98330.59;5137430;28;20332;-66
2023/03/28 08:48:17;;;;;;;1.42;1.33;;;;;;;-0.32;100.00;98338.38;5137394;28;20051;-63
2023/03/28 08:50:45;;;;;;;3.95;1.85;;;;;;;-0.20;100.00;98343.97;5137262;28;20519;-68
2023/03/28 08:53:18;;;;;;;0.98;0.98;;;;;;;-0.28;100.00;98334.75;5137353;28;20078;-63
2023/03/28 08:55:47;;;;;;;1.23;1.13;;;;;;;-0.15;100.00;98341.09;5138040;28;20142;-64
2023/03/28 08:58:20;;;;;;;1.40;1.27;;;;;;;0.01;100.00;98337.97;5137159;28;20047;-61
2023/03/28 09:00:47;;;;;;;4.40;1.33;;;;;;;-0.24;100.00;98326.81;5137197;28;20047;-64
2023/03/28 09:03:17;;;;;;;2.75;1.55;;;;;;;-0.22;100.00;98326.53;5136862;28;20057;-61
2023/03/28 09:05:47;;;;;;;1.42;1.33;;;;;;;-0.37;100.00;98335.81;5136693;27;20154;-61
2023/03/28 09:08:36;;;;;;;9.40;1.75;;;;;;;-0.24;100.00;98351.06;5136994;28;20047;-64
2023/03/28 09:11:16;;;;;;;2.30;2.10;;;;;;;-0.18;100.00;98352.50;5136974;28;20480;-70
2023/03/28 09:13:53;;;;;;;1.58;1.38;;;;;;;-0.23;100.00;98341.91;5137327;28;20137;-65
2023/03/28 09:16:36;;;;;;;3.53;1.48;;;;;;;-0.17;100.00;98353.31;5137390;28;20137;-68
2023/03/28 09:19:27;;;;;;;1.03;1.03;;;;;;;0.14;100.00;98364.00;5137602;27;20051;-67
2023/03/28 09:22:09;;;;;;;2.10;1.80;;;;;;;0.03;100.00;98354.59;5140761;28;20090;-68
2023/03/28 09:24:55;;;;;;;1.38;1.08;;;;;;;0.05;100.00;98352.41;5140652;28;20092;-68
2023/03/28 09:27:27;;;;;;;1.92;1.45;;;;;;;-0.18;100.00;98344.44;5140566;28;20142;-69
2023/03/28 09:29:57;;;;;;;1.20;0.88;;;;;;;-0.39;100.00;98348.81;5140955;28;20110;-59
2023/03/28 09:32:28;;;;;;;3.33;1.50;;;;;;;-0.28;100.00;98356.28;5140426;28;20047;-66
2023/03/28 09:34:55;;;;;;;2.00;1.45;;;;;;;-0.36;100.00;98361.66;5140858;27;20087;-63
2023/03/28 09:37:29;;;;;;;2.35;1.38;;;;;;;-0.17;100.00;98370.25;5140942;28;20133;-67
2023/03/28 09:39:58;;;;;;;1.90;1.50;;;;;;;-0.08;100.00;98386.44;5140839;28;20062;-64
2023/03/28 09:42:33;;;;;;;2.05;1.80;;;;;;;0.11;100.00;98392.34;5140998;28;20075;-68
2023/03/28 09:45:06;;;;;;;3.55;1.35;;;;;;;0.03;100.00;98382.34;5140350;28;20055;-63
2023/03/28 09:47:33;;;;;;;2.20;1.15;;;;;;;-0.01;100.00;98381.38;5140902;28;20043;-65
2023/03/28 09:49:59;;;;;;;4.82;1.58;;;;;;;-0.20;100.00;98372.78;5140667;28;20452;-66
2023/03/28 09:52:25;;;;;;;0.90;0.90;;;;;;;-0.17;100.00;98375.63;5141109;28;20142;-67
2023/03/28 09:54:51;;;;;;;1.23;1.13;;;;;;;-0.08;100.00;98378.38;5140936;28;20141;-58
2023/03/28 09:57:17;;;;;;;2.25;1.38;;;;;;;-0.31;100.00;98375.75;5140896;28;20074;-65
2023/03/28 09:59:43;;;;;;;1.52;1.40;;;;;;;-0.30;100.00;98379.25;5140923;28;20058;-65
2023/03/28 10:02:25;;;;;;;2.10;1.27;;;;;;;-0.29;100.00;98388.94;5140541;28;20145;-62
2023/03/28 10:04:52;;;;;;;1.33;1.23;;;;;;;-0.21;100.00;98390.06;5139999;27;20133;-63
2023/03/28 10:07:41;;;;;;;3.00;1.63;;;;;;;-0.25;100.00;98406.06;5140218;28;20110;-67
2023/03/28 10:10:16;;;;;;;2.00;1.65;;;;;;;-0.25;100.00;98406.84;5140420;28;20051;-64
2023/03/28 10:12:46;;;;;;;1.48;1.38;;;;;;;-0.26;100.00;98428.72;5139964;28;20417;-69
2023/03/28 10:15:31;;;;;;;1.42;1.33;;;;;;;-0.12;100.00;98444.78;5140463;28;20051;-61
2023/03/28 10:18:00;;;;;;;2.63;1.85;;;;;;;-0.10;100.00;98446.06;5140157;28;20068;-59
2023/03/28 10:20:26;;;;;;;3.08;1.90;;;;;;;-0.15;100.00;98440.78;5139572;28;20047;-58
2023/03/28 10:22:55;;;;;;;3.15;1.90;;;;;;;-0.17;100.00;98421.44;5140045;28;20085;-63
2023/03/28 10:25:32;;;;;;;1.63;1.50;;;;;;;-0.15;100.00;98419.25;5139660;28;20075;-65
2023/03/28 10:27:59;;;;;;;1.48;1.38;;;;;;;-0.09;100.00;98422.59;5140028;28;20077;-65
2023/03/28 10:30:29;;;;;;;1.92;1.52;;;;;;;-0.08;100.00;98410.69;5139310;27;20142;-62
2023/03/28 10:33:08;;;;;;;2.70;1.17;;;;;;;-0.26;100.00;98402.56;5140337;28;20501;-64
2023/03/28 10:35:35;;;;;;;2.55;1.35;;;;;;;-0.18;100.00;98401.00;5140688;27;20054;-72
2023/03/28 10:38:03;;;;;;;1.77;1.58;;;;;;;-0.01;100.00;98413.72;5140089;28;20047;-66
2023/03/28 10:40:30;;;;;;;3.10;1.85;;;;;;;0.15;100.00;98428.34;5139607;28;20055;-67
2023/03/28 10:42:58;;;;;;;4.50;1.50;;;;;;;0.06;100.00;98418.66;5139502;28;20137;-61
2023/03/28 10:45:33;;;;;;;1.23;1.13;;;;;;;0.06;100.00;98399.78;5139631;28;20043;-64
2023/03/28 10:48:05;;;;;;;5.72;1.65;;;;;;;0.13;100.00;98381.25;5139852;28;20112;-61
2023/03/28 10:50:36;;;;;;;2.40;1.77;;;;;;;0.04;100.00;98367.78;5140016;28;20055;-64
2023/03/28 10:53:20;;;;;;;1.10;0.98;;;;;;;0.16;100.00;98367.94;5139033;28;20142;-61
2023/03/28 10:56:06;;;;;;;4.82;1.73;;;;;;;-0.14;100.00;98320.34;5139415;28;20047;-65
2023/03/28 10:58:36;;;;;;;3.00;1.45;;;;;;;0.07;100.00;98348.28;5139029;28;20070;-61
2023/03/28 11:01:10;;;;;;;4.85;1.52;;;;;;;-0.32;100.00;98335.69;5139122;28;20082;-66
2023/03/28 11:03:51;;;;;;;1.75;1.20;;;;;;;-0.14;100.00;98364.25;5139237;28;20047;-66
2023/03/28 11:06:21;;;;;;;1.65;1.10;;;;;;;-0.20;100.00;98359.31;5138907;27;20051;-63
2023/03/28 11:09:00;;;;;;;1.42;1.23;;;;;;;0.01;100.00;98378.41;5139443;28;20105;-61
2023/03/28 11:11:39;;;;;;;2.05;1.10;;;;;;;0.30;100.00;98383.16;5138786;28;20047;-65
2023/03/28 11:14:19;;;;;;;1.85;1.75;;;;;;;0.36;100.00;98353.03;5139064;28;20137;-60
2023/03/28 11:16:53;;;;;;;1.50;1.40;;;;;;;0.05;100.00;98290.41;5138857;28;20169;-59
2023/03/28 11:19:41;;;;;;;1.48;1.20;;;;;;;0.37;100.00;98289.94;5138710;28;20055;-64
2023/03/28 11:22:21;;;;;;;1.33;1.20;;;;;;;0.36;100.00;98220.13;5139074;28;20174;-61
2023/03/28 11:24:57;;;;;;;4.57;1.63;;;;;;;0.28;100.00;98175.91;5138629;28;20051;-66
2023/03/28 11:27:28;;;;;;;5.13;1.30;;;;;;;0.20;100.00;98141.69;5139124;28;20124;-59
2023/03/28 11:30:00;;;;;;;3.13;1.58;;;;;;;0.51;100.00;98140.66;5138826;28;20138;-66
2023/03/28 11:32:30;;;;;;;2.75;1.65;;;;;;;0.72;100.00;98109.13;5138775;28;20075;-63
2023/03/28 11:35:06;;;;;;;1.55;1.45;;;;;;;0.58;100.00;98016.88;5138856;27;20055;-62
2023/03/28 11:37:39;;;;;;;3.00;1.30;;;;;;;0.39;100.00;97960.66;5138489;28;20055;-62